Saturday, May 26, 2018, 6:17 AM EDT
Back to Local

KVSF, Hartness State Airport

Location: Perkinsville, VT, United States Lat: 43.35
Local Time: 6:17 AM EDT (10:17 GMT) Lon: -72.517
Time Zone: US/Eastern Elev: 577 ft

Show me the last for .
Show Decoded

2018-05-26 05:54 METAR KVSF 260954Z AUTO VRB03KT 10SM CLR 15/13 A2974 RMK AO2 SLP069 T01500133 =
2018-05-26 04:54 METAR KVSF 260854Z AUTO 00000KT 10SM FEW120 16/13 A2973 RMK AO2 SLP064 T01560133
                 56003 =
2018-05-26 03:54 METAR KVSF 260754Z AUTO 00000KT 10SM CLR 16/13 A2973 RMK AO2 SLP064 T01610133 =
2018-05-26 02:54 METAR KVSF 260654Z AUTO 00000KT 10SM CLR 16/13 A2972 RMK AO2 SLP062 T01610128 =
2018-05-26 01:54 METAR KVSF 260554Z AUTO 00000KT 10SM CLR 18/14 A2974 RMK AO2 SLP067 T01780139
                 10261 20178 58004 =
2018-05-26 00:54 METAR KVSF 260454Z AUTO 00000KT 10SM FEW100 19/14 A2974 RMK AO2 SLP069 T01940139
                 402940067 =
2018-05-25 23:54 METAR KVSF 260354Z AUTO 00000KT 10SM BKN075 OVC090 20/14 A2975 RMK AO2 SLP071
                 T02000139 =
2018-05-25 22:54 METAR KVSF 260254Z AUTO 00000KT 10SM BKN095 OVC120 23/12 A2975 RMK AO2 SLP070
                 T02280117 58003 =
2018-05-25 21:54 METAR KVSF 260154Z AUTO 23004KT 10SM CLR 24/11 A2976 RMK AO2 SLP074 T02440106 =
2018-05-25 20:54 METAR KVSF 260054Z AUTO 27005KT 10SM FEW120 25/11 A2976 RMK AO2 SLP075 T02500106
                 =
2018-05-25 19:54 METAR KVSF 252354Z AUTO 26010G16KT 10SM BKN100 26/10 A2976 RMK AO2 SLP075
                 T02610100 10294 20261 55000 =
2018-05-25 18:54 METAR KVSF 252254Z AUTO 26012G19KT 10SM CLR 27/10 A2974 RMK AO2 SLP071 T02720100
                 =
2018-05-25 17:54 METAR KVSF 252154Z AUTO 22006KT 10SM OVC085 27/09 A2975 RMK AO2 SLP072 T02670094
                 =
2018-05-25 16:54 METAR KVSF 252054Z AUTO 24007KT 10SM OVC090 27/09 A2976 RMK AO2 SLP076 T02720089
                 56015 =
2018-05-25 15:54 METAR KVSF 251954Z AUTO 25011KT 10SM BKN095 29/09 A2976 RMK AO2 SLP078 T02890089
                 =
2018-05-25 14:54 METAR KVSF 251854Z AUTO 22013G21KT 190V250 10SM CLR 28/08 A2978 RMK AO2 SLP084
                 T02780083 =
2018-05-25 13:54 METAR KVSF 251754Z AUTO 30010G20KT 10SM SCT120 28/08 A2980 RMK AO2 SLP092
                 T02830083 10289 20122 56026 =
2018-05-25 12:54 METAR KVSF 251654Z AUTO 27017G24KT 10SM CLR 28/08 A2982 RMK AO2 SLP098 T02830083
                 =
2018-05-25 11:54 METAR KVSF 251554Z AUTO 27014G19KT 10SM CLR 28/08 A2985 RMK AO2 SLP108 T02780078
                 =
2018-05-25 10:54 METAR KVSF 251454Z AUTO 28013G17KT 10SM CLR 27/08 A2988 RMK AO2 SLP118 T02670083
                 56022 =
2018-05-25 09:54 METAR KVSF 251354Z AUTO 27014G23KT 10SM CLR 26/09 A2990 RMK AO2 SLP123 T02560089
                 =
2018-05-25 08:54 METAR KVSF 251254Z AUTO 17003KT 10SM CLR 18/12 A2992 RMK AO2 SLP133 T01830122 =
2018-05-25 07:54 METAR KVSF 251154Z AUTO 00000KT 10SM CLR 12/09 A2995 RMK AO2 SLP141 T01220094
                 10122 20067 58007 =
2018-05-25 06:54 METAR KVSF 251054Z AUTO 00000KT 10SM CLR 09/08 A2996 RMK AO2 SLP147 T00890078 =

Support USWX by starting your Amazon purchase here.